createdAt,value
2022-09-29T00:00:14.607Z,2.63
2022-09-29T00:02:41.092Z,3.13
2022-09-29T00:05:07.979Z,3.38
2022-09-29T00:07:34.504Z,3.42
2022-09-29T00:10:00.880Z,3.42
2022-09-29T00:12:27.266Z,3.13
2022-09-29T00:14:53.672Z,3.40
2022-09-29T00:17:20.131Z,3.15
2022-09-29T00:19:46.505Z,4.28
2022-09-29T00:22:12.904Z,4.18
2022-09-29T00:24:39.278Z,4.82
2022-09-29T00:27:05.705Z,6.20
2022-09-29T00:29:32.139Z,4.40
2022-09-29T00:31:58.563Z,3.60
2022-09-29T00:34:24.990Z,3.95
2022-09-29T00:36:51.375Z,4.22
2022-09-29T00:39:17.795Z,3.75
2022-09-29T00:41:44.206Z,4.05
2022-09-29T00:44:13.304Z,3.67
2022-09-29T00:46:51.337Z,4.05
2022-09-29T00:49:33.265Z,3.78
2022-09-29T00:52:08.001Z,3.63
2022-09-29T00:54:40.093Z,4.57
2022-09-29T00:57:08.902Z,3.72
2022-09-29T00:59:53.162Z,3.72
2022-09-29T01:02:21.782Z,3.78
2022-09-29T01:04:52.775Z,4.15
2022-09-29T01:07:22.172Z,4.13
2022-09-29T01:09:52.031Z,3.97
2022-09-29T01:12:18.574Z,4.38
2022-09-29T01:14:45.325Z,4.40
2022-09-29T01:17:11.798Z,4.10
2022-09-29T01:20:05.027Z,4.80
2022-09-29T01:22:58.428Z,4.32
2022-09-29T01:26:06.792Z,4.07
2022-09-29T01:29:08.470Z,4.05
2022-09-29T01:31:41.139Z,4.18
2022-09-29T01:34:23.997Z,4.55
2022-09-29T01:37:00.190Z,4.28
2022-09-29T01:39:34.639Z,4.40
2022-09-29T01:42:08.461Z,4.80
2022-09-29T01:44:42.883Z,3.83
2022-09-29T01:47:28.537Z,3.90
2022-09-29T01:50:00.788Z,4.03
2022-09-29T01:52:33.301Z,3.40
2022-09-29T01:55:03.526Z,3.55
2022-09-29T01:57:39.875Z,3.42
2022-09-29T02:00:11.582Z,3.00
2022-09-29T02:02:50.808Z,2.97
2022-09-29T02:05:22.438Z,3.10
2022-09-29T02:07:49.809Z,3.00
2022-09-29T02:10:27.008Z,3.15
2022-09-29T02:12:56.904Z,3.13
2022-09-29T02:15:28.452Z,3.30
2022-09-29T02:18:01.432Z,3.15
2022-09-29T02:20:27.867Z,2.88
2022-09-29T02:22:55.597Z,2.90
2022-09-29T02:25:23.718Z,3.25
2022-09-29T02:27:51.053Z,3.25
2022-09-29T02:30:18.310Z,3.08
2022-09-29T02:32:47.136Z,2.72
2022-09-29T02:35:14.658Z,2.70
2022-09-29T02:37:54.542Z,2.90
2022-09-29T02:40:29.757Z,2.92
2022-09-29T02:43:04.808Z,2.88
2022-09-29T02:45:49.695Z,2.90
2022-09-29T02:48:24.872Z,2.83
2022-09-29T02:51:39.045Z,2.70
2022-09-29T02:54:57.771Z,2.80
2022-09-29T02:57:59.517Z,2.58
2022-09-29T03:00:26.629Z,2.92
2022-09-29T03:02:53.051Z,2.35
2022-09-29T03:05:22.594Z,2.88
2022-09-29T03:07:49.419Z,2.95
2022-09-29T03:10:17.713Z,2.67
2022-09-29T03:12:44.301Z,3.20
2022-09-29T03:15:14.135Z,3.00
2022-09-29T03:17:41.017Z,4.10
2022-09-29T03:20:08.600Z,4.68
2022-09-29T03:22:35.435Z,4.32
2022-09-29T03:25:02.041Z,4.75
2022-09-29T03:27:28.507Z,4.05
2022-09-29T03:29:55.045Z,4.95
2022-09-29T03:32:21.453Z,4.28
2022-09-29T03:34:47.845Z,3.60
2022-09-29T03:37:14.264Z,4.20
2022-09-29T03:39:40.724Z,4.38
2022-09-29T03:42:07.468Z,4.00
2022-09-29T03:44:33.936Z,4.90
2022-09-29T03:47:00.819Z,4.22
2022-09-29T03:49:27.209Z,4.43
2022-09-29T03:51:53.590Z,5.07
2022-09-29T03:54:20.139Z,5.20
2022-09-29T03:56:46.537Z,4.32
2022-09-29T03:59:15.090Z,5.40
2022-09-29T04:01:41.619Z,5.32
2022-09-29T04:04:09.197Z,5.15
2022-09-29T04:06:36.605Z,5.13
2022-09-29T04:09:03.861Z,5.15
2022-09-29T04:11:30.488Z,5.18
2022-09-29T04:13:56.955Z,5.00
2022-09-29T04:16:23.370Z,4.97
2022-09-29T04:18:49.836Z,5.75
2022-09-29T04:21:16.832Z,5.18
2022-09-29T04:23:43.252Z,5.43
2022-09-29T04:26:09.746Z,5.28
2022-09-29T04:28:37.422Z,3.80
2022-09-29T04:31:04.851Z,4.00
2022-09-29T04:33:31.411Z,3.30
2022-09-29T04:35:59.071Z,3.75
2022-09-29T04:38:25.896Z,3.83
2022-09-29T04:40:52.310Z,3.85
2022-09-29T04:43:18.786Z,4.03
2022-09-29T04:45:45.163Z,4.50
2022-09-29T04:48:11.549Z,4.35
2022-09-29T04:50:38.290Z,4.30
2022-09-29T04:53:04.706Z,5.38
2022-09-29T04:55:31.087Z,5.68
2022-09-29T04:57:57.599Z,6.45
2022-09-29T05:00:23.966Z,5.57
2022-09-29T05:02:50.602Z,6.82
2022-09-29T05:05:17.404Z,8.90
2022-09-29T05:07:44.536Z,6.57
2022-09-29T05:10:11.346Z,8.73
2022-09-29T05:12:37.870Z,12.88
2022-09-29T05:15:06.163Z,7.65
2022-09-29T05:17:32.770Z,10.60
2022-09-29T05:19:59.167Z,6.43
2022-09-29T05:22:26.154Z,11.68
2022-09-29T05:24:53.087Z,8.75
2022-09-29T05:27:20.131Z,7.07
2022-09-29T05:29:46.789Z,8.07
2022-09-29T05:32:13.370Z,6.95
2022-09-29T05:34:39.840Z,6.93
2022-09-29T05:37:06.326Z,7.63
2022-09-29T05:39:34.564Z,7.75
2022-09-29T05:42:02.469Z,7.40
2022-09-29T05:44:29.247Z,11.73
2022-09-29T05:46:55.650Z,9.00
2022-09-29T05:49:23.272Z,7.20
2022-09-29T05:51:49.780Z,5.53
2022-09-29T05:54:16.476Z,6.15
2022-09-29T05:56:45.363Z,6.05
2022-09-29T05:59:12.195Z,6.10
2022-09-29T06:01:39.123Z,6.20
2022-09-29T06:04:05.630Z,6.53
2022-09-29T06:06:32.104Z,6.47
2022-09-29T06:08:59.167Z,5.80
2022-09-29T06:11:28.424Z,7.43
2022-09-29T06:13:55.800Z,6.95
2022-09-29T06:16:26.084Z,6.75
2022-09-29T06:18:53.473Z,6.28
2022-09-29T06:21:23.768Z,6.78
2022-09-29T06:23:51.398Z,7.30
2022-09-29T06:26:23.606Z,6.70
2022-09-29T06:28:51.070Z,7.32
2022-09-29T06:31:20.579Z,7.20
2022-09-29T06:33:47.173Z,6.65
2022-09-29T06:36:55.369Z,7.30
2022-09-29T06:39:21.844Z,7.00
2022-09-29T06:41:57.762Z,7.68
2022-09-29T06:44:26.734Z,7.28
2022-09-29T06:46:54.210Z,10.40
2022-09-29T06:49:21.280Z,15.63
2022-09-29T06:51:47.896Z,8.27
2022-09-29T06:54:15.763Z,8.05
2022-09-29T06:56:42.723Z,6.93
2022-09-29T06:59:09.516Z,6.70
2022-09-29T07:01:35.953Z,7.25
2022-09-29T07:04:02.528Z,6.97
2022-09-29T07:06:30.305Z,7.50
2022-09-29T07:08:58.852Z,6.32
2022-09-29T07:11:26.452Z,6.40
2022-09-29T07:13:54.899Z,6.68
2022-09-29T07:16:24.000Z,7.15
2022-09-29T07:18:51.348Z,7.20
2022-09-29T07:21:18.603Z,6.38
2022-09-29T07:23:46.362Z,6.63
2022-09-29T07:26:13.182Z,8.07
2022-09-29T07:28:40.152Z,6.95
2022-09-29T07:31:14.765Z,7.82
2022-09-29T07:33:42.171Z,6.57
2022-09-29T07:36:08.715Z,7.07
2022-09-29T07:38:35.333Z,7.35
2022-09-29T07:41:11.728Z,7.22
2022-09-29T07:43:38.725Z,6.82
2022-09-29T07:46:05.720Z,7.43
2022-09-29T07:48:33.770Z,9.25
2022-09-29T07:51:10.022Z,7.80
2022-09-29T07:53:37.124Z,7.55
2022-09-29T07:56:14.312Z,7.10
2022-09-29T07:58:42.042Z,6.60
2022-09-29T08:01:12.773Z,7.47
2022-09-29T08:03:40.791Z,6.18
2022-09-29T08:06:07.824Z,6.32
2022-09-29T08:08:42.599Z,6.45
2022-09-29T08:11:24.884Z,5.85
2022-09-29T08:13:56.451Z,5.30
2022-09-29T08:16:23.574Z,5.20
2022-09-29T08:18:50.533Z,4.65
2022-09-29T08:21:17.482Z,4.97
2022-09-29T08:23:44.163Z,9.68
2022-09-29T08:26:16.731Z,5.45
2022-09-29T08:28:45.110Z,4.65
2022-09-29T08:31:15.232Z,4.75
2022-09-29T08:33:41.787Z,4.13
2022-09-29T08:36:17.658Z,4.25
2022-09-29T08:38:45.449Z,4.30
2022-09-29T08:41:46.347Z,4.25
2022-09-29T08:44:32.465Z,4.40
2022-09-29T08:47:18.477Z,3.65
2022-09-29T08:49:55.296Z,4.80
2022-09-29T08:52:27.083Z,4.35
2022-09-29T08:55:08.791Z,3.60
2022-09-29T08:57:40.844Z,3.88
2022-09-29T09:00:12.570Z,3.20
2022-09-29T09:03:19.667Z,3.75
2022-09-29T09:06:14.513Z,3.38
2022-09-29T09:09:02.701Z,3.65
2022-09-29T09:12:23.121Z,3.75
2022-09-29T09:15:20.185Z,3.53
2022-09-29T09:18:09.105Z,3.47
2022-09-29T09:20:53.527Z,3.88
2022-09-29T09:23:21.765Z,3.60
2022-09-29T09:25:55.303Z,3.83
2022-09-29T09:31:06.311Z,4.53
2022-09-29T09:33:58.304Z,3.85
2022-09-29T09:37:04.691Z,3.75
2022-09-29T09:39:55.730Z,4.65
2022-09-29T09:42:27.706Z,3.88
2022-09-29T09:45:27.141Z,3.30
2022-09-29T09:48:01.358Z,3.28
2022-09-29T09:50:28.402Z,4.90
2022-09-29T09:53:14.559Z,3.35
2022-09-29T09:55:43.219Z,3.60
2022-09-29T09:58:45.070Z,4.10
2022-09-29T10:01:14.497Z,3.65
2022-09-29T10:03:40.929Z,4.45
2022-09-29T10:06:09.472Z,4.50
2022-09-29T10:08:39.994Z,4.65
2022-09-29T10:11:12.659Z,4.13
2022-09-29T10:13:39.341Z,3.00
2022-09-29T10:16:23.684Z,3.30
2022-09-29T10:18:53.687Z,3.35
2022-09-29T10:21:36.167Z,3.05
2022-09-29T10:24:06.238Z,3.17
2022-09-29T10:26:43.302Z,3.00
2022-09-29T10:29:28.284Z,3.03
2022-09-29T10:32:23.858Z,2.70
2022-09-29T10:34:56.859Z,2.20
2022-09-29T10:37:26.744Z,2.83
2022-09-29T10:40:08.839Z,2.70
2022-09-29T10:42:37.317Z,2.38
2022-09-29T10:45:19.008Z,2.60
2022-09-29T10:48:07.420Z,2.20
2022-09-29T10:50:47.882Z,1.63
2022-09-29T10:53:24.896Z,2.75
2022-09-29T10:55:55.124Z,2.85
2022-09-29T10:58:45.198Z,2.20
2022-09-29T11:01:17.419Z,2.25
2022-09-29T11:03:52.473Z,2.40
2022-09-29T11:06:27.404Z,2.40
2022-09-29T11:09:01.886Z,2.35
2022-09-29T11:11:34.349Z,1.75
2022-09-29T11:14:01.303Z,1.67
2022-09-29T11:16:30.823Z,1.92
2022-09-29T11:19:01.227Z,1.92
2022-09-29T11:21:59.049Z,1.90
2022-09-29T11:24:28.357Z,2.13
2022-09-29T11:27:23.224Z,1.83
2022-09-29T11:30:07.970Z,2.08
2022-09-29T11:33:05.210Z,1.88
2022-09-29T11:35:32.380Z,3.33
2022-09-29T11:38:16.487Z,1.98
2022-09-29T11:41:34.193Z,2.03
2022-09-29T11:44:23.148Z,11.23
2022-09-29T11:47:12.269Z,1.85
2022-09-29T11:49:56.083Z,1.95
2022-09-29T11:52:47.423Z,2.10
2022-09-29T11:55:51.423Z,2.08
2022-09-29T12:00:50.186Z,1.80
2022-09-29T12:03:19.354Z,2.47
2022-09-29T12:06:23.981Z,2.92
2022-09-29T12:09:01.632Z,3.28
2022-09-29T12:14:54.899Z,2.30
2022-09-29T12:17:23.382Z,2.20
2022-09-29T12:20:00.688Z,2.67
2022-09-29T12:22:29.423Z,2.40
2022-09-29T12:24:59.772Z,1.95
2022-09-29T12:27:36.510Z,2.28
2022-09-29T12:30:26.163Z,4.18
2022-09-29T12:33:14.453Z,2.47
2022-09-29T12:35:59.799Z,2.58
2022-09-29T12:38:37.021Z,2.33
2022-09-29T12:41:20.393Z,2.45
2022-09-29T12:43:58.828Z,3.10
2022-09-29T12:46:38.309Z,2.83
2022-09-29T12:49:18.537Z,2.40
2022-09-29T12:51:47.746Z,3.05
2022-09-29T12:54:35.705Z,2.70
2022-09-29T12:57:11.500Z,2.67
2022-09-29T12:59:48.995Z,2.65
2022-09-29T13:02:28.142Z,1.85
2022-09-29T13:05:30.742Z,2.05
2022-09-29T13:08:14.620Z,3.33
2022-09-29T13:10:55.641Z,2.10
2022-09-29T13:13:37.237Z,2.92
2022-09-29T13:16:12.653Z,2.60
2022-09-29T13:19:20.147Z,2.83
2022-09-29T13:22:22.218Z,2.60
2022-09-29T13:25:21.855Z,3.50
2022-09-29T13:27:51.667Z,2.80
2022-09-29T13:30:19.559Z,31.05
2022-09-29T13:32:49.638Z,28.45
2022-09-29T13:35:20.629Z,27.52
2022-09-29T13:38:02.995Z,13.15
2022-09-29T13:40:30.877Z,3.55
2022-09-29T13:43:05.689Z,3.00
2022-09-29T13:45:35.517Z,13.88
2022-09-29T13:48:17.749Z,2.78
2022-09-29T13:50:45.541Z,5.75
2022-09-29T13:53:33.452Z,4.00
2022-09-29T13:56:02.769Z,2.90
2022-09-29T13:58:33.571Z,2.80
2022-09-29T14:01:03.501Z,2.45
2022-09-29T14:03:34.558Z,2.38
2022-09-29T14:06:39.774Z,2.58
2022-09-29T14:09:23.237Z,3.58
2022-09-29T14:11:52.770Z,2.05
2022-09-29T14:14:37.820Z,3.90
2022-09-29T14:17:17.281Z,1.77
2022-09-29T14:19:51.035Z,1.88
2022-09-29T14:22:26.244Z,7.28
2022-09-29T14:24:55.899Z,2.55
2022-09-29T14:27:39.991Z,3.10
2022-09-29T14:30:09.083Z,4.93
2022-09-29T14:32:48.661Z,2.72
2022-09-29T14:35:27.565Z,7.03
2022-09-29T14:38:17.209Z,2.65
2022-09-29T14:40:57.398Z,2.50
2022-09-29T14:43:43.023Z,3.25
2022-09-29T14:46:56.408Z,3.10
2022-09-29T14:50:12.452Z,3.00
2022-09-29T14:52:38.820Z,3.30
2022-09-29T14:55:15.599Z,3.17
2022-09-29T14:58:00.635Z,3.75
2022-09-29T15:00:41.930Z,2.55
2022-09-29T15:03:26.417Z,3.20
2022-09-29T15:06:24.675Z,2.47
2022-09-29T15:09:17.022Z,1.90
2022-09-29T15:12:04.505Z,1.60
2022-09-29T15:14:36.971Z,1.50
2022-09-29T15:17:38.010Z,1.27
2022-09-29T15:20:11.320Z,1.23
2022-09-29T15:23:20.738Z,0.90
2022-09-29T15:25:47.278Z,1.20
2022-09-29T15:28:34.673Z,0.95
2022-09-29T15:31:05.041Z,1.13
2022-09-29T15:33:36.675Z,1.60
2022-09-29T15:36:05.950Z,1.30
2022-09-29T15:38:34.434Z,1.15
2022-09-29T15:41:04.203Z,1.00
2022-09-29T15:43:43.773Z,0.90
2022-09-29T15:46:22.762Z,4.38
2022-09-29T15:49:12.774Z,7.32
2022-09-29T15:51:41.130Z,1.33
2022-09-29T15:54:10.918Z,0.70
2022-09-29T15:56:57.120Z,0.95
2022-09-29T15:59:42.105Z,1.48
2022-09-29T16:02:26.579Z,1.70
2022-09-29T16:04:56.439Z,2.00
2022-09-29T16:07:30.704Z,2.10
2022-09-29T16:10:22.775Z,4.05
2022-09-29T16:13:02.335Z,4.35
2022-09-29T16:15:32.206Z,3.50
2022-09-29T16:18:06.443Z,2.20
2022-09-29T16:20:35.335Z,1.90
2022-09-29T16:23:16.955Z,1.90
2022-09-29T16:25:44.655Z,2.20
2022-09-29T16:28:30.431Z,3.88
2022-09-29T16:31:20.193Z,2.45
2022-09-29T16:33:54.813Z,3.03
2022-09-29T16:36:27.036Z,2.30
2022-09-29T16:38:54.943Z,3.10
2022-09-29T16:41:34.408Z,3.08
2022-09-29T16:44:22.517Z,1.80
2022-09-29T16:46:55.663Z,2.00
2022-09-29T16:49:29.685Z,3.10
2022-09-29T16:52:01.213Z,1.40
2022-09-29T16:54:42.329Z,1.95
2022-09-29T16:57:25.653Z,2.85
2022-09-29T16:59:58.740Z,3.65
2022-09-29T17:02:26.886Z,3.75
2022-09-29T17:04:55.469Z,5.10
2022-09-29T17:07:24.967Z,5.55
2022-09-29T17:09:55.823Z,5.50
2022-09-29T17:12:23.708Z,6.13
2022-09-29T17:14:51.210Z,5.13
2022-09-29T17:17:22.514Z,3.53
2022-09-29T17:19:50.321Z,3.45
2022-09-29T17:22:34.637Z,2.78
2022-09-29T17:25:01.578Z,2.95
2022-09-29T17:27:46.955Z,2.67
2022-09-29T17:30:18.701Z,4.07
2022-09-29T17:32:46.895Z,2.40
2022-09-29T17:35:14.629Z,3.55
2022-09-29T17:37:42.032Z,4.00
2022-09-29T17:40:24.018Z,3.30
2022-09-29T17:42:51.404Z,3.20
2022-09-29T17:45:19.854Z,3.75
2022-09-29T17:47:49.322Z,3.22
2022-09-29T17:50:24.210Z,3.63
2022-09-29T17:52:51.962Z,3.47
2022-09-29T17:55:18.600Z,3.60
2022-09-29T17:57:47.511Z,4.15
2022-09-29T18:00:21.815Z,3.22
2022-09-29T18:02:50.683Z,3.10
2022-09-29T18:05:23.388Z,3.00
2022-09-29T18:07:54.659Z,2.70
2022-09-29T18:10:38.078Z,3.10
2022-09-29T18:13:04.501Z,3.10
2022-09-29T18:15:30.903Z,2.83
2022-09-29T18:17:58.789Z,4.18
2022-09-29T18:20:26.618Z,3.10
2022-09-29T18:22:52.987Z,3.58
2022-09-29T18:25:19.791Z,2.97
2022-09-29T18:27:47.375Z,2.92
2022-09-29T18:30:29.403Z,2.97
2022-09-29T18:33:00.747Z,2.97
2022-09-29T18:35:35.039Z,3.33
2022-09-29T18:38:02.631Z,2.40
2022-09-29T18:40:31.012Z,2.92
2022-09-29T18:42:59.533Z,2.85
2022-09-29T18:45:31.487Z,3.05
2022-09-29T18:48:03.351Z,3.15
2022-09-29T18:50:32.871Z,2.47
2022-09-29T18:53:01.575Z,2.78
2022-09-29T18:55:30.076Z,3.88
2022-09-29T18:57:58.482Z,3.13
2022-09-29T19:00:27.650Z,3.08
2022-09-29T19:02:54.229Z,3.05
2022-09-29T19:05:23.887Z,2.63
2022-09-29T19:07:57.099Z,2.80
2022-09-29T19:10:23.592Z,2.88
2022-09-29T19:12:51.055Z,2.53
2022-09-29T19:15:20.655Z,2.20
2022-09-29T19:17:48.685Z,2.25
2022-09-29T19:20:17.699Z,2.47
2022-09-29T19:22:46.022Z,2.58
2022-09-29T19:25:16.435Z,2.45
2022-09-29T19:27:44.011Z,2.38
2022-09-29T19:30:13.424Z,2.30
2022-09-29T19:32:40.360Z,2.67
2022-09-29T19:35:09.383Z,2.42
2022-09-29T19:37:36.286Z,2.90
2022-09-29T19:40:04.308Z,2.85
2022-09-29T19:42:30.698Z,3.17
2022-09-29T19:44:57.089Z,3.17
2022-09-29T19:47:23.480Z,3.15
2022-09-29T19:49:49.949Z,2.60
2022-09-29T19:52:16.301Z,2.95
2022-09-29T19:54:42.833Z,10.15
2022-09-29T19:57:14.729Z,3.40
2022-09-29T19:59:41.679Z,7.38
2022-09-29T20:02:12.737Z,3.67
2022-09-29T20:04:40.025Z,14.45
2022-09-29T20:07:06.813Z,4.18
2022-09-29T20:09:33.806Z,1.90
2022-09-29T20:12:00.741Z,2.30
2022-09-29T20:14:27.624Z,2.15
2022-09-29T20:16:56.805Z,2.50
2022-09-29T20:19:24.042Z,2.40
2022-09-29T20:21:52.408Z,2.13
2022-09-29T20:24:21.504Z,3.00
2022-09-29T20:26:48.723Z,3.00
2022-09-29T20:29:18.415Z,2.55
2022-09-29T20:31:48.420Z,2.28
2022-09-29T20:34:18.352Z,2.90
2022-09-29T20:36:44.988Z,2.60
2022-09-29T20:39:12.298Z,2.85
2022-09-29T20:41:38.749Z,2.72
2022-09-29T20:44:05.380Z,2.40
2022-09-29T20:46:31.900Z,2.35
2022-09-29T20:48:59.714Z,2.53
2022-09-29T20:51:26.645Z,2.30
2022-09-29T20:53:59.697Z,2.20
2022-09-29T20:56:35.852Z,2.00
2022-09-29T20:59:03.000Z,1.45
2022-09-29T21:01:32.108Z,2.03
2022-09-29T21:04:05.299Z,2.00
2022-09-29T21:06:34.194Z,2.55
2022-09-29T21:09:01.975Z,2.08
2022-09-29T21:11:28.382Z,2.20
2022-09-29T21:13:56.931Z,1.85
2022-09-29T21:16:24.855Z,1.85
2022-09-29T21:18:54.165Z,2.10
2022-09-29T21:21:20.737Z,1.85
2022-09-29T21:23:48.642Z,2.28
2022-09-29T21:26:17.550Z,2.10
2022-09-29T21:28:49.815Z,1.95
2022-09-29T21:31:18.234Z,2.47
2022-09-29T21:33:46.221Z,1.85
2022-09-29T21:36:15.267Z,2.00
2022-09-29T21:38:43.314Z,1.92
2022-09-29T21:41:22.579Z,2.13
2022-09-29T21:43:51.400Z,2.10
2022-09-29T21:46:20.928Z,2.03
2022-09-29T21:48:56.019Z,2.33
2022-09-29T21:51:25.326Z,1.92
2022-09-29T21:53:53.352Z,1.98
2022-09-29T21:56:22.619Z,2.15
2022-09-29T21:58:52.006Z,2.10
2022-09-29T22:01:19.410Z,1.90
2022-09-29T22:03:48.398Z,2.25
2022-09-29T22:06:16.382Z,3.15
2022-09-29T22:08:43.499Z,2.60
2022-09-29T22:11:10.451Z,2.50
2022-09-29T22:13:37.215Z,2.28
2022-09-29T22:16:08.400Z,2.08
2022-09-29T22:18:41.673Z,2.20
2022-09-29T22:23:36.489Z,1.90
2022-09-29T22:26:03.409Z,2.70
2022-09-29T22:28:30.408Z,1.75
2022-09-29T22:31:08.751Z,2.45
2022-09-29T22:33:37.408Z,2.45
2022-09-29T22:36:04.974Z,2.45
2022-09-29T22:38:34.372Z,2.30
2022-09-29T22:41:00.736Z,2.97
2022-09-29T22:43:27.144Z,1.98
2022-09-29T22:45:53.507Z,2.45
2022-09-29T22:48:20.086Z,2.40
2022-09-29T22:50:48.397Z,2.28
2022-09-29T22:53:15.759Z,2.47
2022-09-29T22:55:42.331Z,2.75
2022-09-29T22:58:12.551Z,2.25
2022-09-29T23:00:40.784Z,2.15
2022-09-29T23:03:10.112Z,2.35
2022-09-29T23:05:37.229Z,2.60
2022-09-29T23:08:03.823Z,2.40
2022-09-29T23:10:30.185Z,2.42
2022-09-29T23:12:56.553Z,3.13
2022-09-29T23:15:22.973Z,2.97
2022-09-29T23:17:51.247Z,3.28
2022-09-29T23:20:17.664Z,4.60
2022-09-29T23:22:44.026Z,5.15
2022-09-29T23:25:10.421Z,5.28
2022-09-29T23:27:36.787Z,5.05
2022-09-29T23:30:03.386Z,3.13
2022-09-29T23:32:29.763Z,2.63
2022-09-29T23:34:56.211Z,2.80
2022-09-29T23:37:22.608Z,2.22
2022-09-29T23:39:49.026Z,2.38
2022-09-29T23:42:15.589Z,2.42
2022-09-29T23:44:42.117Z,2.80
2022-09-29T23:47:08.489Z,2.53
2022-09-29T23:49:35.279Z,3.20
2022-09-29T23:52:04.292Z,3.30
2022-09-29T23:54:30.863Z,3.47
2022-09-29T23:56:58.222Z,3.60
2022-09-29T23:59:25.776Z,3.42
